Time;durP1;ratioP1;P1;durP2;ratioP2;P2;SDS_P1;SDS_P2;PMS_P1;PMS_P2;Temp;Humidity;BMP_temperature;BMP_pressure;BME280_temperature;BME280_humidity;BME280_pressure;Samples;Min_cycle;Max_cycle;Signal;HPM_P1;HPM_P2
2024/01/14 00:00:00;;;;;;;60.03;26.90;;;-3.60;99.90;;;;;;5113414;28;20751;-73
2024/01/14 00:02:28;;;;;;;62.13;24.93;;;-3.60;99.90;;;;;;5113610;28;20292;-73
2024/01/14 00:04:55;;;;;;;62.97;25.17;;;-3.70;99.90;;;;;;5113473;28;20200;-72
2024/01/14 00:07:22;;;;;;;62.87;26.33;;;-3.70;99.90;;;;;;5113652;28;20199;-72
2024/01/14 00:09:48;;;;;;;62.47;26.70;;;-3.60;99.90;;;;;;5113609;28;20630;-73
2024/01/14 00:12:15;;;;;;;59.70;26.17;;;-3.70;99.90;;;;;;5113580;28;20260;-72
2024/01/14 00:14:42;;;;;;;59.00;26.67;;;-3.70;99.90;;;;;;5113407;28;20233;-72
2024/01/14 00:17:08;;;;;;;56.47;25.00;;;-3.70;99.90;;;;;;5113691;28;20283;-73
2024/01/14 00:19:36;;;;;;;54.53;24.00;;;-3.70;99.90;;;;;;5113309;28;20670;-73
2024/01/14 00:22:04;;;;;;;69.07;26.43;;;-3.70;99.90;;;;;;5113562;28;20288;-73
2024/01/14 00:24:31;;;;;;;53.50;23.23;;;-3.70;99.90;;;;;;5113463;28;20204;-72
2024/01/14 00:26:57;;;;;;;70.17;26.77;;;-3.70;99.90;;;;;;5113343;28;20202;-73
2024/01/14 00:29:24;;;;;;;60.73;23.40;;;-3.80;99.90;;;;;;5113080;28;20556;-73
2024/01/14 00:31:51;;;;;;;62.13;27.63;;;-3.80;99.90;;;;;;5113178;28;20649;-73
2024/01/14 00:34:17;;;;;;;69.57;26.40;;;-3.70;99.90;;;;;;5113264;28;20243;-73
2024/01/14 00:36:45;;;;;;;64.27;26.87;;;-3.80;99.90;;;;;;5113113;28;20200;-73
2024/01/14 00:39:12;;;;;;;68.73;27.63;;;-3.80;99.90;;;;;;5113272;28;20205;-73
2024/01/14 00:41:38;;;;;;;58.80;23.57;;;-3.80;99.90;;;;;;5113199;28;20251;-72
2024/01/14 00:44:05;;;;;;;62.10;25.30;;;-3.80;99.90;;;;;;5113088;28;20352;-72
2024/01/14 00:46:32;;;;;;;68.90;26.43;;;-3.80;99.90;;;;;;5112986;28;20560;-72
2024/01/14 00:48:59;;;;;;;71.83;27.37;;;-3.80;99.90;;;;;;5113099;28;20228;-72
2024/01/14 00:51:26;;;;;;;66.50;25.37;;;-3.70;99.90;;;;;;5112916;28;20691;-72
2024/01/14 00:53:54;;;;;;;69.00;26.90;;;-3.70;99.90;;;;;;5113260;28;20201;-72
2024/01/14 00:56:20;;;;;;;64.43;24.47;;;-3.70;99.90;;;;;;5113012;28;20193;-72
2024/01/14 00:58:47;;;;;;;65.87;24.90;;;-3.80;99.90;;;;;;5113012;28;20239;-72
2024/01/14 01:01:14;;;;;;;69.77;28.00;;;-3.80;99.90;;;;;;5112797;28;20208;-72
2024/01/14 01:03:41;;;;;;;63.93;24.87;;;-3.80;99.90;;;;;;5113149;28;20251;-72
2024/01/14 01:06:08;;;;;;;70.30;25.93;;;-3.80;99.90;;;;;;5113085;28;20210;-72
2024/01/14 01:08:35;;;;;;;64.87;24.23;;;-3.80;99.90;;;;;;5112840;28;20266;-72
2024/01/14 01:11:05;;;;;;;64.23;24.70;;;-3.80;99.90;;;;;;5112874;28;20278;-72
2024/01/14 01:13:32;;;;;;;64.70;24.73;;;-3.80;99.90;;;;;;5112931;28;20727;-72
2024/01/14 01:15:58;;;;;;;72.70;27.23;;;-3.80;99.90;;;;;;5112688;28;20197;-71
2024/01/14 01:18:25;;;;;;;62.03;23.73;;;-3.80;99.90;;;;;;5112724;28;20248;-72
2024/01/14 01:20:52;;;;;;;78.37;27.70;;;-3.80;99.90;;;;;;5115804;28;20561;-72
2024/01/14 01:23:18;;;;;;;62.07;24.23;;;-3.80;99.90;;;;;;5116445;28;20536;-72
2024/01/14 01:25:45;;;;;;;65.27;24.80;;;-3.80;99.90;;;;;;5116531;28;20206;-72
2024/01/14 01:28:13;;;;;;;61.00;25.07;;;-3.80;99.90;;;;;;5116487;28;20202;-71
2024/01/14 01:30:40;;;;;;;68.87;25.97;;;-3.80;99.90;;;;;;5116239;28;20687;-72
2024/01/14 01:33:06;;;;;;;76.37;26.43;;;-3.80;99.90;;;;;;5116467;28;20208;-72
2024/01/14 01:35:33;;;;;;;66.67;25.67;;;-3.80;99.90;;;;;;5116480;28;20230;-72
2024/01/14 01:38:00;;;;;;;67.37;24.43;;;-3.80;99.90;;;;;;5116344;28;20203;-72
2024/01/14 01:40:26;;;;;;;65.67;25.33;;;-3.80;99.90;;;;;;5116238;28;20696;-72
2024/01/14 01:42:53;;;;;;;62.13;25.00;;;-3.80;99.90;;;;;;5116008;28;20230;-72
2024/01/14 01:45:21;;;;;;;72.60;26.77;;;-3.80;99.90;;;;;;5116047;28;20228;-72
2024/01/14 01:47:48;;;;;;;71.30;25.97;;;-3.80;99.90;;;;;;5116242;28;20224;-72
2024/01/14 01:50:15;;;;;;;73.53;25.40;;;-3.80;99.90;;;;;;5116076;28;20224;-72
2024/01/14 01:52:42;;;;;;;68.57;25.57;;;-3.90;99.90;;;;;;5116042;28;20194;-72
2024/01/14 01:55:11;;;;;;;70.30;25.27;;;-3.90;99.90;;;;;;5116094;28;20208;-72
2024/01/14 01:57:39;;;;;;;70.30;24.73;;;-3.90;99.90;;;;;;5115911;27;20290;-72
2024/01/14 02:00:09;;;;;;;67.97;24.27;;;-3.80;99.90;;;;;;5116043;28;20202;-72
2024/01/14 02:02:39;;;;;;;73.67;25.63;;;-3.90;99.90;;;;;;5115767;28;20283;-72
2024/01/14 02:05:06;;;;;;;69.07;25.37;;;-3.90;99.90;;;;;;5115837;28;20586;-72
2024/01/14 02:07:34;;;;;;;72.43;25.40;;;-3.80;99.90;;;;;;5115790;28;20206;-72
2024/01/14 02:10:01;;;;;;;68.53;24.97;;;-3.80;99.90;;;;;;5115669;28;20216;-73
2024/01/14 02:12:27;;;;;;;72.60;24.63;;;-3.80;99.90;;;;;;5115872;28;20226;-72
2024/01/14 02:14:54;;;;;;;67.57;25.37;;;-3.90;99.90;;;;;;5115645;27;20319;-72
2024/01/14 02:17:21;;;;;;;61.20;22.13;;;-3.90;99.90;;;;;;5115607;28;20208;-72
2024/01/14 02:19:49;;;;;;;66.97;25.07;;;-4.00;99.90;;;;;;5115529;28;20202;-72
2024/01/14 02:22:19;;;;;;;74.27;26.10;;;-4.00;99.90;;;;;;5115456;28;20225;-72
2024/01/14 02:24:47;;;;;;;73.50;26.23;;;-4.00;99.90;;;;;;5115523;27;20254;-72
2024/01/14 02:27:14;;;;;;;70.00;24.27;;;-3.90;99.90;;;;;;5115497;28;20202;-72
2024/01/14 02:29:41;;;;;;;77.13;26.40;;;-3.90;99.90;;;;;;5115315;27;20232;-72
2024/01/14 02:32:08;;;;;;;69.97;26.30;;;-3.90;99.90;;;;;;5114226;28;20199;-72
2024/01/14 02:34:36;;;;;;;66.17;25.20;;;-3.90;99.90;;;;;;5115286;28;20254;-71
2024/01/14 02:37:02;;;;;;;70.80;24.77;;;-3.90;99.90;;;;;;5115140;28;20293;-72
2024/01/14 02:39:29;;;;;;;72.77;24.47;;;-4.00;99.90;;;;;;5115074;28;20260;-72
2024/01/14 02:41:57;;;;;;;73.40;26.67;;;-4.00;99.90;;;;;;5115149;28;20606;-72
2024/01/14 02:44:23;;;;;;;80.63;27.77;;;-3.90;99.90;;;;;;5115121;28;20623;-71
2024/01/14 02:46:50;;;;;;;68.00;23.77;;;-3.90;99.90;;;;;;5115013;28;20285;-72
2024/01/14 02:49:17;;;;;;;67.90;25.03;;;-3.90;99.90;;;;;;5114818;28;20221;-72
2024/01/14 02:51:45;;;;;;;78.53;25.43;;;-3.90;99.90;;;;;;5114881;28;20201;-72
2024/01/14 02:54:12;;;;;;;63.33;23.17;;;-3.90;99.90;;;;;;5114994;28;20203;-73
2024/01/14 02:56:39;;;;;;;67.93;24.07;;;-3.90;99.90;;;;;;5114958;28;20201;-72
2024/01/14 02:59:07;;;;;;;70.03;25.57;;;-3.90;99.90;;;;;;5114663;28;20656;-73
2024/01/14 03:01:34;;;;;;;62.47;24.67;;;-3.90;99.90;;;;;;5114867;28;20556;-72
2024/01/14 03:04:01;;;;;;;64.60;23.47;;;-3.90;99.90;;;;;;5114622;28;20251;-73
2024/01/14 03:06:27;;;;;;;74.67;25.70;;;-3.90;99.90;;;;;;5114786;28;20555;-72
2024/01/14 03:08:54;;;;;;;71.27;25.30;;;-3.90;99.90;;;;;;5114742;28;20211;-73
2024/01/14 03:11:21;;;;;;;62.90;23.60;;;-3.90;99.90;;;;;;5114694;28;20194;-73
2024/01/14 03:13:47;;;;;;;64.03;22.67;;;-3.90;99.90;;;;;;5114874;28;20203;-73
2024/01/14 03:16:15;;;;;;;65.20;22.87;;;-3.90;99.90;;;;;;5114428;28;20709;-71
2024/01/14 03:18:42;;;;;;;63.00;22.87;;;-3.90;99.90;;;;;;5114252;28;20198;-73
2024/01/14 03:21:09;;;;;;;71.23;24.80;;;-3.90;99.90;;;;;;5114531;28;20203;-72
2024/01/14 03:23:35;;;;;;;64.70;23.17;;;-3.90;99.90;;;;;;5114386;28;20284;-72
2024/01/14 03:26:02;;;;;;;63.03;21.83;;;-3.90;99.90;;;;;;5114433;28;20197;-73
2024/01/14 03:28:28;;;;;;;63.83;24.23;;;-4.00;99.90;;;;;;5114161;28;20567;-72
2024/01/14 03:30:56;;;;;;;61.63;23.23;;;-4.00;99.90;;;;;;5114092;28;20231;-72
2024/01/14 03:33:23;;;;;;;65.47;24.43;;;-3.90;99.90;;;;;;5114229;28;20225;-72
2024/01/14 03:35:50;;;;;;;61.27;22.43;;;-3.90;99.90;;;;;;5114206;28;20201;-72
2024/01/14 03:38:17;;;;;;;60.77;23.40;;;-3.80;99.90;;;;;;5113625;28;20718;-71
2024/01/14 03:40:43;;;;;;;69.20;23.57;;;-3.90;99.90;;;;;;5114142;28;20197;-72
2024/01/14 03:43:10;;;;;;;68.53;26.00;;;-3.90;99.90;;;;;;5113822;28;20585;-73
2024/01/14 03:45:37;;;;;;;64.67;22.60;;;-3.90;99.90;;;;;;5113866;28;20202;-72
2024/01/14 03:48:04;;;;;;;71.13;24.17;;;-3.90;99.90;;;;;;5113736;27;20204;-73
2024/01/14 03:50:32;;;;;;;70.77;23.50;;;-3.90;99.90;;;;;;5113821;28;20225;-72
2024/01/14 03:52:59;;;;;;;63.40;22.97;;;-3.90;99.90;;;;;;5113857;28;20205;-72
2024/01/14 03:55:25;;;;;;;64.77;23.73;;;-3.90;99.90;;;;;;5113919;28;20204;-72
2024/01/14 03:57:52;;;;;;;64.27;22.30;;;-3.90;99.90;;;;;;5113898;27;20201;-72
2024/01/14 04:00:19;;;;;;;56.90;21.40;;;-3.90;99.90;;;;;;5113599;28;20731;-72
2024/01/14 04:02:46;;;;;;;60.47;21.97;;;-3.90;99.90;;;;;;5113469;28;20611;-72
2024/01/14 04:05:13;;;;;;;65.40;24.03;;;-4.00;99.90;;;;;;5113774;28;20197;-72
2024/01/14 04:07:41;;;;;;;67.57;25.47;;;-3.90;99.90;;;;;;5113607;28;20198;-72
2024/01/14 04:10:08;;;;;;;61.50;24.07;;;-3.90;99.90;;;;;;5113439;28;20249;-72
2024/01/14 04:12:35;;;;;;;57.60;20.67;;;-3.90;99.90;;;;;;5113307;28;20205;-72
2024/01/14 04:15:02;;;;;;;57.70;22.73;;;-3.90;99.90;;;;;;5113429;28;20198;-72
2024/01/14 04:17:28;;;;;;;61.13;23.47;;;-3.90;99.90;;;;;;5113312;28;20727;-72
2024/01/14 04:19:55;;;;;;;52.83;21.23;;;-3.90;99.90;;;;;;5113757;28;20202;-72
2024/01/14 04:22:22;;;;;;;65.30;22.37;;;-3.90;99.90;;;;;;5113444;28;20203;-72
2024/01/14 04:24:49;;;;;;;63.20;23.97;;;-3.90;99.90;;;;;;5113426;28;20295;-72
2024/01/14 04:27:16;;;;;;;64.80;23.10;;;-3.90;99.90;;;;;;5113310;28;20250;-72
2024/01/14 04:29:43;;;;;;;67.00;23.10;;;-3.80;99.90;;;;;;5113142;28;20216;-72
2024/01/14 04:32:10;;;;;;;58.57;21.77;;;-3.80;99.90;;;;;;5113153;28;20860;-72
2024/01/14 04:34:37;;;;;;;57.90;21.50;;;-3.80;99.90;;;;;;5113390;28;20205;-73
2024/01/14 04:37:04;;;;;;;52.43;21.57;;;-3.80;99.90;;;;;;5113337;28;20230;-72
2024/01/14 04:39:30;;;;;;;61.97;20.87;;;-3.80;99.90;;;;;;5113209;28;20206;-72
2024/01/14 04:41:58;;;;;;;50.50;19.30;;;-3.80;99.90;;;;;;5113198;28;20199;-72
2024/01/14 04:44:25;;;;;;;45.47;18.80;;;-3.80;99.90;;;;;;5112948;28;20275;-72
2024/01/14 04:46:52;;;;;;;55.90;19.37;;;-3.70;99.90;;;;;;5113276;28;20203;-72
2024/01/14 04:49:18;;;;;;;55.43;20.57;;;-3.70;99.90;;;;;;5113220;28;20213;-72
2024/01/14 04:51:45;;;;;;;55.50;20.40;;;-3.70;99.90;;;;;;5113064;28;20239;-72
2024/01/14 04:54:12;;;;;;;44.70;17.60;;;-3.70;99.90;;;;;;5113098;28;20246;-71
2024/01/14 04:56:39;;;;;;;44.57;18.20;;;-3.60;99.90;;;;;;5117239;28;20203;-72
2024/01/14 04:59:07;;;;;;;54.30;19.50;;;-3.60;99.90;;;;;;5117294;28;20294;-72
2024/01/14 05:01:34;;;;;;;42.13;18.07;;;-3.70;99.90;;;;;;5117225;28;20276;-72
2024/01/14 05:04:01;;;;;;;46.87;18.73;;;-3.70;99.90;;;;;;5117147;28;20281;-71
2024/01/14 05:06:28;;;;;;;42.83;16.67;;;-3.60;99.90;;;;;;5117181;28;20193;-71
2024/01/14 05:08:55;;;;;;;35.60;16.43;;;-3.70;99.90;;;;;;5117146;27;20242;-71
2024/01/14 05:11:22;;;;;;;39.47;16.43;;;-3.70;99.90;;;;;;5116764;28;20278;-72
2024/01/14 05:13:48;;;;;;;40.10;15.87;;;-3.70;99.90;;;;;;5117113;28;20205;-71
2024/01/14 05:16:16;;;;;;;44.40;16.43;;;-3.70;99.90;;;;;;5116766;28;20720;-72
2024/01/14 05:18:43;;;;;;;46.13;17.13;;;-3.70;99.90;;;;;;5116726;28;20206;-71
2024/01/14 05:21:15;;;;;;;34.10;15.53;;;-3.60;99.90;;;;;;5116563;28;20203;-72
2024/01/14 05:23:41;;;;;;;40.73;16.03;;;-3.60;99.90;;;;;;5116593;27;20783;-72
2024/01/14 05:26:09;;;;;;;37.20;15.50;;;-3.60;99.90;;;;;;5116727;28;20194;-72
2024/01/14 05:28:35;;;;;;;36.50;14.53;;;-3.60;99.90;;;;;;5116870;27;20595;-72
2024/01/14 05:31:03;;;;;;;38.47;16.57;;;-3.60;99.90;;;;;;5116554;28;20221;-73
2024/01/14 05:33:31;;;;;;;36.53;15.27;;;-3.60;99.90;;;;;;5116369;28;20282;-72
2024/01/14 05:35:57;;;;;;;39.27;15.20;;;-3.60;99.90;;;;;;5116350;28;20656;-72
2024/01/14 05:38:24;;;;;;;36.40;15.50;;;-3.60;99.90;;;;;;5116205;28;20252;-72
2024/01/14 05:40:51;;;;;;;39.43;16.13;;;-3.60;99.90;;;;;;5116449;27;20200;-72
2024/01/14 05:43:17;;;;;;;34.60;15.83;;;-3.60;99.90;;;;;;5116176;28;20204;-72
2024/01/14 05:45:44;;;;;;;29.57;12.43;;;-3.60;99.90;;;;;;5116273;28;20253;-72
2024/01/14 05:48:10;;;;;;;37.77;15.43;;;-3.60;99.90;;;;;;5116261;28;20224;-73
2024/01/14 05:50:38;;;;;;;37.40;16.10;;;-3.60;99.90;;;;;;5116320;28;20621;-72
2024/01/14 05:53:05;;;;;;;38.27;15.93;;;-3.70;99.90;;;;;;5116224;28;20563;-73
2024/01/14 05:55:32;;;;;;;37.93;15.90;;;-3.60;99.90;;;;;;5116187;28;20199;-73
2024/01/14 05:57:59;;;;;;;40.43;15.80;;;-3.60;99.90;;;;;;5116124;28;20199;-73
2024/01/14 06:00:26;;;;;;;37.23;15.33;;;-3.60;99.90;;;;;;5116040;28;20204;-73
2024/01/14 06:02:52;;;;;;;35.60;16.50;;;-3.60;99.90;;;;;;5115848;28;20316;-73
2024/01/14 06:05:19;;;;;;;42.03;16.10;;;-3.70;99.90;;;;;;5115544;28;20194;-72
2024/01/14 06:07:47;;;;;;;41.20;16.90;;;-3.70;99.90;;;;;;5116013;28;20210;-72
2024/01/14 06:10:14;;;;;;;41.33;16.63;;;-3.70;99.90;;;;;;5115748;28;20217;-72
2024/01/14 06:12:41;;;;;;;37.43;16.77;;;-3.70;99.90;;;;;;5116005;28;20276;-73
2024/01/14 06:15:09;;;;;;;38.07;15.60;;;-3.80;99.90;;;;;;5115757;28;20259;-72
2024/01/14 06:17:35;;;;;;;33.63;15.60;;;-3.80;99.90;;;;;;5115680;28;20664;-72
2024/01/14 06:20:02;;;;;;;38.60;17.50;;;-3.90;99.90;;;;;;5115545;28;20246;-72
2024/01/14 06:22:30;;;;;;;38.97;15.00;;;-3.90;99.90;;;;;;5115685;28;20197;-72
2024/01/14 06:24:58;;;;;;;37.33;14.80;;;-4.00;99.90;;;;;;5115302;28;20653;-72
2024/01/14 06:27:26;;;;;;;40.77;16.50;;;-4.00;99.90;;;;;;5115517;28;20204;-72
2024/01/14 06:29:53;;;;;;;42.40;17.37;;;-4.00;99.90;;;;;;5115391;28;20198;-73
2024/01/14 06:32:20;;;;;;;41.60;17.13;;;-4.00;99.90;;;;;;5115233;27;20299;-72
2024/01/14 06:34:46;;;;;;;33.53;15.20;;;-4.00;99.90;;;;;;5115124;28;20200;-72
2024/01/14 06:37:13;;;;;;;38.67;16.13;;;-4.00;99.90;;;;;;5115528;28;20197;-72
2024/01/14 06:39:40;;;;;;;38.30;16.10;;;-4.00;99.90;;;;;;5115031;28;20651;-72
2024/01/14 06:42:08;;;;;;;41.70;16.53;;;-4.00;99.90;;;;;;5115495;28;20204;-73
2024/01/14 06:44:34;;;;;;;37.10;15.70;;;-4.00;99.90;;;;;;5114968;27;20228;-72
2024/01/14 06:47:01;;;;;;;36.93;15.77;;;-4.00;99.90;;;;;;5114988;28;20250;-73
2024/01/14 06:49:28;;;;;;;31.10;14.33;;;-4.00;99.90;;;;;;5114946;28;20712;-73
2024/01/14 06:51:54;;;;;;;37.30;15.30;;;-4.10;99.90;;;;;;5115003;28;20257;-73
2024/01/14 06:54:21;;;;;;;35.23;16.40;;;-4.00;99.90;;;;;;5114856;28;20204;-73
2024/01/14 06:56:48;;;;;;;33.67;15.67;;;-4.10;99.90;;;;;;5114910;28;20198;-73
2024/01/14 06:59:19;;;;;;;36.23;15.60;;;-4.10;99.90;;;;;;5114709;28;20198;-72
2024/01/14 07:01:46;;;;;;;34.03;15.03;;;-4.10;99.90;;;;;;5114720;28;20665;-73
2024/01/14 07:04:13;;;;;;;39.57;15.70;;;-4.20;99.90;;;;;;5114549;28;20612;-72
2024/01/14 07:06:40;;;;;;;36.07;15.73;;;-4.10;99.90;;;;;;5114799;28;20561;-73
2024/01/14 07:09:08;;;;;;;35.53;16.57;;;-4.10;99.90;;;;;;5114825;28;20202;-73
2024/01/14 07:11:35;;;;;;;36.10;15.63;;;-4.10;99.90;;;;;;5114530;28;20226;-73
2024/01/14 07:14:02;;;;;;;39.93;17.20;;;-4.10;99.90;;;;;;5114407;28;20199;-72
2024/01/14 07:16:30;;;;;;;39.90;17.50;;;-4.10;99.90;;;;;;5114602;28;20322;-73
2024/01/14 07:18:56;;;;;;;42.27;17.27;;;-4.10;99.90;;;;;;5113966;28;20209;-73
2024/01/14 07:21:23;;;;;;;45.00;19.17;;;-4.00;99.90;;;;;;5114440;28;20192;-71
2024/01/14 07:23:50;;;;;;;41.33;18.47;;;-4.10;99.90;;;;;;5114529;28;20204;-72
2024/01/14 07:26:18;;;;;;;44.47;18.20;;;-4.10;99.90;;;;;;5114383;28;20195;-72
2024/01/14 07:28:45;;;;;;;39.40;17.03;;;-4.10;99.90;;;;;;5114118;28;20194;-72
2024/01/14 07:31:16;;;;;;;39.37;17.37;;;-4.10;99.90;;;;;;5114223;28;20323;-72
2024/01/14 07:33:44;;;;;;;40.40;17.03;;;-4.10;99.90;;;;;;5114320;27;20198;-73
2024/01/14 07:36:11;;;;;;;39.10;16.43;;;-4.10;99.90;;;;;;5114151;28;20270;-72
2024/01/14 07:38:38;;;;;;;40.97;16.23;;;-4.10;99.90;;;;;;5113999;28;20194;-72
2024/01/14 07:41:05;;;;;;;35.63;15.07;;;-4.00;99.90;;;;;;5114002;28;20202;-73
2024/01/14 07:43:31;;;;;;;41.13;16.23;;;-4.00;99.90;;;;;;5113825;28;20234;-73
2024/01/14 07:45:58;;;;;;;37.13;16.87;;;-4.10;99.90;;;;;;5113814;28;20658;-72
2024/01/14 07:48:26;;;;;;;40.37;16.17;;;-4.00;99.90;;;;;;5113940;28;20286;-73
2024/01/14 07:50:54;;;;;;;40.60;16.57;;;-4.00;99.90;;;;;;5113686;28;20271;-73
2024/01/14 07:53:22;;;;;;;38.43;15.47;;;-4.00;99.90;;;;;;5113810;28;20258;-72
2024/01/14 07:55:49;;;;;;;35.17;14.43;;;-4.00;99.90;;;;;;5113724;28;20193;-72
2024/01/14 07:58:15;;;;;;;33.70;14.17;;;-4.10;99.90;;;;;;5113663;28;20202;-72
2024/01/14 08:00:41;;;;;;;33.70;15.07;;;-4.10;99.90;;;;;;5113810;28;20197;-73
2024/01/14 08:03:08;;;;;;;27.90;13.73;;;-4.10;99.90;;;;;;5113937;28;20251;-73
2024/01/14 08:05:35;;;;;;;26.87;13.17;;;-4.20;99.90;;;;;;5113595;28;20258;-72
2024/01/14 08:08:04;;;;;;;40.77;15.43;;;-4.20;99.90;;;;;;5113766;28;20224;-74
2024/01/14 08:10:30;;;;;;;34.20;15.57;;;-4.10;99.90;;;;;;5113545;28;20197;-73
2024/01/14 08:12:57;;;;;;;35.73;15.70;;;-4.00;99.90;;;;;;5113295;28;20192;-73
2024/01/14 08:15:24;;;;;;;29.37;13.90;;;-4.00;99.90;;;;;;5113644;28;20248;-73
2024/01/14 08:17:50;;;;;;;32.07;14.33;;;-4.00;99.90;;;;;;5113587;28;20290;-72
2024/01/14 08:20:17;;;;;;;33.77;15.10;;;-4.00;99.90;;;;;;5113081;28;20254;-74
2024/01/14 08:22:44;;;;;;;35.47;14.80;;;-4.00;99.90;;;;;;5113499;28;20207;-74
2024/01/14 08:25:12;;;;;;;32.27;14.53;;;-4.00;99.90;;;;;;5113565;28;20209;-74
2024/01/14 08:27:39;;;;;;;33.37;14.77;;;-3.90;99.90;;;;;;5113665;28;20211;-73
2024/01/14 08:30:07;;;;;;;37.47;16.10;;;-3.90;99.90;;;;;;5112905;28;20230;-74
2024/01/14 08:32:34;;;;;;;32.63;15.10;;;-3.90;99.90;;;;;;5117706;28;20251;-72
2024/01/14 08:35:00;;;;;;;38.60;16.23;;;-3.90;99.90;;;;;;5115825;28;20269;-74
2024/01/14 08:37:29;;;;;;;36.17;14.97;;;-3.90;99.90;;;;;;5114307;28;20596;-73
2024/01/14 08:39:55;;;;;;;31.90;14.77;;;-3.80;99.90;;;;;;5113027;28;20227;-74
2024/01/14 08:42:23;;;;;;;34.23;15.63;;;-3.70;99.90;;;;;;5113093;28;20652;-73
2024/01/14 08:44:50;;;;;;;33.63;14.80;;;-3.60;99.90;;;;;;5112945;28;20232;-74
2024/01/14 08:47:17;;;;;;;33.73;14.93;;;-3.70;99.90;;;;;;5113281;28;20196;-73
2024/01/14 08:49:44;;;;;;;38.33;15.53;;;-3.70;99.90;;;;;;5113219;28;20193;-72
2024/01/14 08:52:11;;;;;;;35.83;15.47;;;-3.70;99.90;;;;;;5112827;28;20233;-73
2024/01/14 08:54:38;;;;;;;34.33;15.27;;;-3.60;99.90;;;;;;5113148;28;20229;-72
2024/01/14 08:57:04;;;;;;;30.70;13.90;;;-3.60;99.90;;;;;;5113064;28;20230;-72
2024/01/14 08:59:32;;;;;;;31.57;14.83;;;-3.80;99.90;;;;;;5112945;28;20205;-73
2024/01/14 09:01:59;;;;;;;31.30;14.80;;;-3.80;99.90;;;;;;5112999;28;20194;-73
2024/01/14 09:04:26;;;;;;;35.20;14.63;;;-3.80;99.90;;;;;;5112946;28;20246;-72
2024/01/14 09:06:52;;;;;;;35.97;15.03;;;-3.70;99.90;;;;;;5112796;28;20205;-72
2024/01/14 09:09:19;;;;;;;37.60;14.57;;;-3.50;99.90;;;;;;5113062;28;20251;-73
2024/01/14 09:11:46;;;;;;;35.03;15.13;;;-3.60;99.90;;;;;;5112934;28;20230;-72
2024/01/14 09:14:13;;;;;;;33.67;15.37;;;-3.60;99.90;;;;;;5112931;28;20486;-73
2024/01/14 09:16:41;;;;;;;32.63;14.37;;;-3.50;99.90;;;;;;5112777;28;20194;-72
2024/01/14 09:19:08;;;;;;;33.87;14.33;;;-3.50;99.90;;;;;;5112681;28;20210;-74
2024/01/14 09:21:35;;;;;;;32.40;14.87;;;-3.60;99.90;;;;;;5112829;28;20203;-74
2024/01/14 09:24:02;;;;;;;34.03;14.20;;;-3.50;99.90;;;;;;5112890;28;20198;-73
2024/01/14 09:26:28;;;;;;;35.77;16.10;;;-3.40;99.90;;;;;;5112889;28;20240;-75
2024/01/14 09:28:55;;;;;;;31.13;15.30;;;-3.20;99.90;;;;;;5112845;28;20198;-75
2024/01/14 09:31:21;;;;;;;29.97;14.13;;;-3.10;99.90;;;;;;5112648;28;20212;-74
2024/01/14 09:33:49;;;;;;;24.93;11.27;;;-3.40;99.90;;;;;;5117865;28;20286;-77
2024/01/14 09:36:20;;;;;;;28.87;14.53;;;-3.20;99.90;;;;;;5112079;28;20188;-75
2024/01/14 09:38:46;;;;;;;26.63;13.10;;;-3.30;99.90;;;;;;5127393;28;20258;-73
2024/01/14 09:41:24;;;;;;;30.00;12.70;;;-3.30;99.90;;;;;;5134937;27;20216;-75
2024/01/14 09:43:52;;;;;;;32.23;15.07;;;-3.30;99.90;;;;;;5135990;27;20707;-74
2024/01/14 09:46:19;;;;;;;27.53;12.90;;;-3.20;99.90;;;;;;5136217;27;20190;-73
2024/01/14 09:48:47;;;;;;;32.47;14.07;;;-3.20;99.90;;;;;;5136446;27;20228;-74
2024/01/14 09:51:16;;;;;;;29.23;13.17;;;-3.10;99.90;;;;;;5135965;27;20189;-73
2024/01/14 09:53:44;;;;;;;30.27;14.33;;;-3.00;99.90;;;;;;5136455;27;20198;-74
2024/01/14 09:56:13;;;;;;;37.50;15.03;;;-3.00;99.90;;;;;;5135857;27;20732;-74
2024/01/14 09:58:40;;;;;;;36.50;15.30;;;-3.00;99.90;;;;;;5136356;27;20270;-74
2024/01/14 10:01:10;;;;;;;35.87;16.30;;;-2.90;99.90;;;;;;5135859;27;20183;-74
2024/01/14 10:03:36;;;;;;;34.07;14.73;;;-2.60;99.90;;;;;;5136399;27;20194;-74
2024/01/14 10:06:04;;;;;;;30.90;14.00;;;-2.70;99.90;;;;;;5138779;27;20255;-74
2024/01/14 10:08:32;;;;;;;32.93;14.33;;;-2.90;99.90;;;;;;5143063;27;20199;-74
2024/01/14 10:11:02;;;;;;;31.17;13.83;;;-2.90;99.90;;;;;;5136685;27;20243;-74
2024/01/14 10:13:31;;;;;;;32.27;14.27;;;-3.00;99.90;;;;;;5136154;27;20570;-74
2024/01/14 10:15:58;;;;;;;32.70;14.80;;;-2.90;99.90;;;;;;5131292;27;20192;-73
2024/01/14 10:18:25;;;;;;;28.13;14.83;;;-2.30;99.90;;;;;;5115185;28;20654;-73
2024/01/14 10:20:52;;;;;;;31.07;13.53;;;-1.90;99.90;;;;;;5115379;28;20196;-74
2024/01/14 10:23:22;;;;;;;29.33;12.93;;;-2.00;99.90;;;;;;5115292;28;20195;-74
2024/01/14 10:25:50;;;;;;;29.00;12.97;;;-2.00;99.90;;;;;;5115422;28;20198;-74
2024/01/14 10:28:18;;;;;;;29.43;13.67;;;-2.20;99.90;;;;;;5115010;28;20195;-74
2024/01/14 10:30:45;;;;;;;28.83;13.83;;;-2.30;99.90;;;;;;5111037;27;20550;-75
2024/01/14 10:33:12;;;;;;;31.47;14.37;;;-1.90;99.90;;;;;;5111918;28;20231;-74
2024/01/14 10:35:39;;;;;;;28.97;14.33;;;-2.00;99.90;;;;;;5111339;28;20603;-74
2024/01/14 10:38:06;;;;;;;28.13;14.13;;;-2.20;99.90;;;;;;5111765;28;20196;-74
2024/01/14 10:40:32;;;;;;;29.83;14.37;;;-2.10;99.90;;;;;;5111471;28;20229;-74
2024/01/14 10:43:02;;;;;;;26.90;13.17;;;-1.90;99.90;;;;;;5111664;28;20245;-73
2024/01/14 10:45:28;;;;;;;28.40;12.80;;;-1.90;99.90;;;;;;5111321;28;20227;-74
2024/01/14 10:47:57;;;;;;;26.53;12.80;;;-1.80;99.90;;;;;;5111556;28;20839;-73
2024/01/14 10:50:27;;;;;;;26.00;12.67;;;-2.00;99.90;;;;;;5111464;28;20685;-74
2024/01/14 10:52:56;;;;;;;31.03;13.93;;;-2.00;99.90;;;;;;5110324;28;20343;-73
2024/01/14 10:55:34;;;;;;;25.13;11.80;;;-1.90;99.90;;;;;;5111538;28;20200;-71
2024/01/14 10:58:04;;;;;;;25.20;12.37;;;-1.90;99.90;;;;;;5111145;28;20203;-72
2024/01/14 11:00:35;;;;;;;24.93;12.40;;;-1.90;99.90;;;;;;5111329;28;20222;-73
2024/01/14 11:03:04;;;;;;;22.83;11.33;;;-1.90;99.90;;;;;;5111348;28;20234;-73
2024/01/14 11:05:33;;;;;;;28.20;12.97;;;-2.20;99.90;;;;;;5111393;28;20195;-73
2024/01/14 11:08:00;;;;;;;25.63;12.83;;;-2.00;99.90;;;;;;5123964;27;20213;-73
2024/01/14 11:10:27;;;;;;;28.53;13.50;;;-1.70;99.90;;;;;;5131079;27;20251;-73
2024/01/14 11:13:07;;;;;;;27.00;13.97;;;-1.60;99.90;;;;;;5131645;27;20275;-73
2024/01/14 11:15:39;;;;;;;30.37;13.57;;;-1.60;99.90;;;;;;5131829;27;20245;-73
2024/01/14 11:18:10;;;;;;;27.93;13.17;;;-1.50;99.90;;;;;;5131438;27;20206;-73
2024/01/14 11:20:41;;;;;;;27.60;13.30;;;-1.40;99.90;;;;;;5131649;27;20202;-73
2024/01/14 11:23:08;;;;;;;24.87;11.93;;;-1.10;99.90;;;;;;5131149;27;20247;-73
2024/01/14 11:25:36;;;;;;;24.80;11.77;;;-1.30;99.90;;;;;;5131546;27;20195;-72
2024/01/14 11:28:06;;;;;;;28.00;12.90;;;-1.50;99.90;;;;;;5131237;27;20637;-73
2024/01/14 11:30:53;;;;;;;28.27;12.73;;;-1.50;99.90;;;;;;5131526;27;20256;-72
2024/01/14 11:33:38;;;;;;;25.23;12.77;;;-1.30;99.90;;;;;;5131406;27;20561;-71
2024/01/14 11:36:07;;;;;;;26.57;12.67;;;-0.90;99.90;;;;;;5131200;27;20645;-72
2024/01/14 11:38:35;;;;;;;26.30;13.23;;;-0.40;99.90;;;;;;5131122;27;20320;-72
2024/01/14 11:41:29;;;;;;;25.47;12.90;;;-0.20;99.90;;;;;;5131000;27;20198;-73
2024/01/14 11:44:02;;;;;;;22.17;12.03;;;0.00;99.90;;;;;;5131049;27;20231;-73
2024/01/14 11:46:39;;;;;;;24.00;11.93;;;-0.40;99.90;;;;;;5130645;27;20213;-73
2024/01/14 11:49:09;;;;;;;26.70;12.73;;;-1.00;99.90;;;;;;5130831;27;20222;-73
2024/01/14 11:51:39;;;;;;;26.20;12.43;;;-0.90;99.90;;;;;;5130792;27;20294;-72
2024/01/14 11:54:09;;;;;;;25.03;12.73;;;-0.80;99.90;;;;;;5131168;27;20741;-71
2024/01/14 11:56:35;;;;;;;25.53;13.23;;;-0.40;99.90;;;;;;5130866;27;20209;-73
2024/01/14 11:59:08;;;;;;;23.03;11.87;;;-0.80;99.90;;;;;;5130395;27;20615;-73
2024/01/14 12:01:36;;;;;;;23.87;11.63;;;-1.10;99.90;;;;;;5139677;27;20285;-72
2024/01/14 12:04:04;;;;;;;23.30;12.10;;;-1.20;99.90;;;;;;5133823;27;20213;-73
2024/01/14 12:06:38;;;;;;;29.00;12.63;;;-1.40;99.90;;;;;;5133972;27;20202;-72
2024/01/14 12:09:06;;;;;;;22.23;11.97;;;-1.70;99.90;;;;;;5132995;27;20286;-73
2024/01/14 12:11:33;;;;;;;26.57;12.13;;;-1.70;99.90;;;;;;5133980;27;20251;-74
2024/01/14 12:14:00;;;;;;;28.67;12.40;;;-1.80;99.90;;;;;;5133947;27;20264;-73
2024/01/14 12:16:28;;;;;;;23.67;12.00;;;-1.80;99.90;;;;;;5133426;27;20203;-73
2024/01/14 12:18:54;;;;;;;28.27;12.13;;;-1.80;99.90;;;;;;5134209;27;20195;-73
2024/01/14 12:21:22;;;;;;;24.17;12.50;;;-1.80;99.90;;;;;;5133945;27;20195;-73
2024/01/14 12:23:49;;;;;;;26.47;11.87;;;-1.50;99.90;;;;;;5134285;27;20207;-75
2024/01/14 12:26:16;;;;;;;25.50;12.30;;;-1.50;99.90;;;;;;5133732;27;20199;-73
2024/01/14 12:28:42;;;;;;;23.50;12.17;;;-1.20;99.90;;;;;;5133686;27;20203;-73